createdAt,value
2022-12-19T00:01:33.373Z,20.90
2022-12-19T00:04:22.235Z,22.30
2022-12-19T00:06:55.566Z,21.52
2022-12-19T00:09:42.345Z,23.75
2022-12-19T00:12:19.181Z,19.98
2022-12-19T00:15:06.377Z,23.98
2022-12-19T00:17:46.233Z,18.52
2022-12-19T00:20:40.246Z,19.67
2022-12-19T00:23:28.303Z,18.52
2022-12-19T00:26:01.345Z,23.38
2022-12-19T00:28:50.276Z,21.45
2022-12-19T00:31:32.337Z,19.65
2022-12-19T00:34:28.346Z,18.45
2022-12-19T00:37:15.363Z,31.27
2022-12-19T00:39:48.333Z,24.27
2022-12-19T00:42:42.237Z,21.52
2022-12-19T00:45:39.620Z,23.58
2022-12-19T00:48:27.293Z,25.25
2022-12-19T00:51:10.310Z,26.70
2022-12-19T00:53:57.252Z,23.98
2022-12-19T00:56:35.231Z,23.83
2022-12-19T00:59:26.503Z,19.95
2022-12-19T01:02:00.512Z,21.05
2022-12-19T01:04:47.251Z,23.33
2022-12-19T01:07:27.257Z,22.30
2022-12-19T01:10:21.277Z,22.10
2022-12-19T01:13:09.245Z,25.65
2022-12-19T01:15:46.332Z,21.77
2022-12-19T01:18:33.243Z,20.38
2022-12-19T01:21:09.340Z,23.95
2022-12-19T01:23:56.278Z,23.83
2022-12-19T01:26:29.302Z,26.15
2022-12-19T01:29:16.284Z,23.52
2022-12-19T01:31:49.422Z,26.42
2022-12-19T01:34:36.273Z,26.45
2022-12-19T01:37:09.303Z,23.00
2022-12-19T01:39:56.265Z,24.88
2022-12-19T01:42:30.321Z,23.88
2022-12-19T01:45:17.266Z,23.75
2022-12-19T01:47:58.376Z,23.02
2022-12-19T01:51:03.554Z,28.23
2022-12-19T01:53:56.250Z,23.15
2022-12-19T01:56:51.228Z,19.23
2022-12-19T01:59:40.238Z,24.73
2022-12-19T02:02:48.322Z,29.15
2022-12-19T02:05:21.290Z,22.10
2022-12-19T02:08:08.318Z,24.85
2022-12-19T02:10:41.416Z,28.25
2022-12-19T02:13:32.318Z,26.23
2022-12-19T02:16:14.356Z,23.55
2022-12-19T02:19:21.233Z,20.67
2022-12-19T02:22:17.428Z,20.80
2022-12-19T02:25:23.302Z,24.65
2022-12-19T02:28:18.272Z,23.80
2022-12-19T02:31:39.257Z,27.13
2022-12-19T02:34:39.948Z,22.90
2022-12-19T02:37:30.199Z,23.70
2022-12-19T02:40:31.327Z,21.05
2022-12-19T02:43:14.221Z,21.15
2022-12-19T02:46:03.415Z,22.52
2022-12-19T02:48:44.259Z,19.63
2022-12-19T02:51:38.255Z,18.85
2022-12-19T02:54:25.298Z,21.88
2022-12-19T02:56:58.328Z,17.67
2022-12-19T03:00:08.255Z,18.40
2022-12-19T03:02:51.181Z,18.88
2022-12-19T03:06:14.310Z,19.95
2022-12-19T03:08:59.392Z,20.35
2022-12-19T03:11:48.256Z,22.98
2022-12-19T03:14:26.373Z,22.08
2022-12-19T03:17:17.375Z,24.85
2022-12-19T03:19:50.448Z,24.35
2022-12-19T03:22:38.315Z,22.88
2022-12-19T03:25:12.370Z,25.98
2022-12-19T03:28:01.391Z,22.10
2022-12-19T03:30:38.833Z,23.75
2022-12-19T03:33:30.156Z,25.67
2022-12-19T03:36:08.377Z,23.75
2022-12-19T03:38:55.320Z,19.60
2022-12-19T03:41:56.313Z,26.15
2022-12-19T03:44:54.317Z,23.98
2022-12-19T03:47:49.293Z,21.42
2022-12-19T03:50:30.325Z,21.73
2022-12-19T03:53:32.369Z,19.80
2022-12-19T03:56:32.390Z,22.80
2022-12-19T03:59:38.316Z,18.52
2022-12-19T04:02:12.457Z,19.08
2022-12-19T04:05:05.386Z,16.13
2022-12-19T04:07:39.386Z,18.50
2022-12-19T04:10:30.283Z,19.15
2022-12-19T04:13:19.317Z,17.23
2022-12-19T04:16:18.359Z,15.77
2022-12-19T04:19:00.433Z,19.48
2022-12-19T04:21:59.348Z,21.85
2022-12-19T04:24:45.361Z,19.95
2022-12-19T04:27:47.338Z,17.08
2022-12-19T04:30:42.384Z,17.77
2022-12-19T04:33:30.349Z,18.17
2022-12-19T04:36:12.356Z,17.70
2022-12-19T04:39:06.317Z,18.02
2022-12-19T04:41:54.344Z,17.02
2022-12-19T04:44:34.321Z,17.13
2022-12-19T04:47:22.313Z,17.55
2022-12-19T04:50:03.358Z,16.13
2022-12-19T04:52:57.406Z,18.58
2022-12-19T04:55:44.336Z,19.60
2022-12-19T04:58:21.781Z,16.48
2022-12-19T05:01:11.379Z,21.00
2022-12-19T05:03:44.473Z,22.33
2022-12-19T05:06:25.304Z,25.60
2022-12-19T05:09:05.520Z,23.48
2022-12-19T05:11:45.332Z,24.20
2022-12-19T05:14:25.343Z,28.25
2022-12-19T05:17:05.321Z,27.05
2022-12-19T05:19:52.313Z,27.60
2022-12-19T05:22:25.444Z,22.30
2022-12-19T05:25:12.318Z,22.88
2022-12-19T05:27:45.379Z,21.55
2022-12-19T05:30:32.377Z,26.48
2022-12-19T05:33:12.310Z,26.80
2022-12-19T05:35:59.307Z,29.27
2022-12-19T05:38:33.393Z,25.80
2022-12-19T05:41:22.319Z,37.83
2022-12-19T05:44:00.420Z,33.15
2022-12-19T05:46:48.374Z,32.83
2022-12-19T05:49:21.416Z,27.50
2022-12-19T05:52:08.321Z,29.15
2022-12-19T05:54:48.332Z,21.23
2022-12-19T05:57:36.326Z,22.15
2022-12-19T06:00:11.389Z,28.00
2022-12-19T06:02:58.493Z,23.27
2022-12-19T06:05:31.380Z,24.75
2022-12-19T06:08:18.308Z,25.35
2022-12-19T06:10:58.318Z,25.35
2022-12-19T06:13:45.313Z,23.70
2022-12-19T06:16:24.717Z,23.25
2022-12-19T06:19:11.318Z,24.45
2022-12-19T06:21:48.108Z,23.27
2022-12-19T06:24:35.311Z,19.95
2022-12-19T06:27:08.442Z,18.90
2022-12-19T06:29:55.320Z,17.90
2022-12-19T06:32:28.580Z,22.83
2022-12-19T06:35:18.379Z,24.10
2022-12-19T06:38:01.026Z,20.48
2022-12-19T06:41:10.396Z,21.55
2022-12-19T06:43:53.817Z,24.02
2022-12-19T06:46:47.376Z,23.15
2022-12-19T06:49:34.326Z,18.50
2022-12-19T06:52:09.269Z,25.70
2022-12-19T06:54:58.683Z,22.80
2022-12-19T06:57:31.391Z,22.25
2022-12-19T07:00:20.373Z,20.85
2022-12-19T07:02:56.422Z,26.67
2022-12-19T07:05:43.306Z,20.08
2022-12-19T07:08:17.448Z,17.80
2022-12-19T07:11:05.377Z,16.98
2022-12-19T07:13:38.396Z,21.42
2022-12-19T07:16:25.354Z,22.27
2022-12-19T07:18:58.424Z,19.63
2022-12-19T07:21:38.389Z,22.58
2022-12-19T07:24:21.308Z,24.02
2022-12-19T07:26:54.396Z,25.40
2022-12-19T07:29:41.317Z,23.50
2022-12-19T07:32:14.411Z,20.75
2022-12-19T07:35:01.318Z,18.60
2022-12-19T07:37:34.389Z,20.05
2022-12-19T07:40:21.351Z,22.60
2022-12-19T07:43:01.309Z,22.15
2022-12-19T07:45:48.380Z,18.73
2022-12-19T07:48:30.410Z,26.48
2022-12-19T07:51:17.297Z,23.88
2022-12-19T07:53:57.313Z,28.77
2022-12-19T07:56:51.365Z,31.95
2022-12-19T07:59:45.336Z,33.58
2022-12-19T08:02:39.417Z,33.10
2022-12-19T08:05:33.353Z,22.05
2022-12-19T08:08:20.365Z,22.00
2022-12-19T08:10:53.448Z,47.40
2022-12-19T08:13:46.160Z,33.83
2022-12-19T08:16:27.324Z,21.83
2022-12-19T08:19:25.920Z,20.13
2022-12-19T08:22:14.403Z,19.45
2022-12-19T08:24:47.409Z,16.95
2022-12-19T08:27:34.373Z,21.83
2022-12-19T08:30:07.404Z,22.05
2022-12-19T08:32:55.330Z,18.30
2022-12-19T08:35:28.466Z,17.35
2022-12-19T08:38:15.347Z,19.17
2022-12-19T08:40:48.416Z,22.85
2022-12-19T08:43:35.373Z,19.58
2022-12-19T08:46:09.357Z,20.98
2022-12-19T08:48:56.382Z,19.83
2022-12-19T08:51:29.520Z,20.95
2022-12-19T08:54:16.439Z,23.75
2022-12-19T08:56:49.401Z,20.80
2022-12-19T08:59:36.371Z,25.95
2022-12-19T09:02:11.193Z,25.48
2022-12-19T09:06:01.888Z,25.20
2022-12-19T09:07:58.364Z,25.02
2022-12-19T09:10:45.356Z,23.15
2022-12-19T09:13:25.448Z,24.05
2022-12-19T09:16:26.454Z,21.45
2022-12-19T09:19:22.395Z,27.17
2022-12-19T09:22:16.394Z,21.65
2022-12-19T09:25:10.406Z,25.80
2022-12-19T09:28:26.436Z,22.38
2022-12-19T09:30:57.442Z,20.55
2022-12-19T09:33:45.358Z,22.50
2022-12-19T09:36:27.361Z,22.70
2022-12-19T09:39:21.355Z,21.23
2022-12-19T09:42:29.339Z,26.30
2022-12-19T09:45:34.375Z,30.48
2022-12-19T09:48:31.354Z,26.50
2022-12-19T09:51:27.346Z,27.48
2022-12-19T09:54:17.452Z,28.50
2022-12-19T09:57:09.396Z,25.73
2022-12-19T09:59:50.158Z,27.25
2022-12-19T10:02:55.450Z,25.30
2022-12-19T10:06:43.280Z,29.92
2022-12-19T10:10:49.115Z,39.65
2022-12-19T10:12:39.326Z,36.25
2022-12-19T10:16:01.441Z,24.45
2022-12-19T10:19:04.373Z,22.35
2022-12-19T10:22:17.552Z,22.52
2022-12-19T10:25:15.365Z,20.70
2022-12-19T10:28:01.367Z,18.83
2022-12-19T10:30:39.506Z,24.23
2022-12-19T10:33:51.343Z,18.50
2022-12-19T10:36:48.708Z,20.88
2022-12-19T10:39:37.484Z,20.40
2022-12-19T10:42:46.369Z,20.48
2022-12-19T10:45:29.381Z,20.80
2022-12-19T10:48:30.553Z,21.92
2022-12-19T10:51:20.375Z,18.92
2022-12-19T10:54:07.443Z,20.10
2022-12-19T10:57:02.405Z,19.02
2022-12-19T11:00:10.398Z,21.05
2022-12-19T11:03:10.478Z,23.15
2022-12-19T11:05:58.273Z,26.87
2022-12-19T11:08:39.389Z,24.38
2022-12-19T11:14:40.691Z,21.88
2022-12-19T11:19:50.971Z,22.55
2022-12-19T11:29:15.400Z,21.10
2022-12-19T11:29:35.300Z,24.90
2022-12-19T11:29:54.791Z,25.58
2022-12-19T11:30:59.413Z,26.08
2022-12-19T11:33:30.743Z,22.83
2022-12-19T11:36:50.393Z,20.30
2022-12-19T11:39:55.565Z,21.63
2022-12-19T11:43:25.562Z,27.03
2022-12-19T11:46:22.213Z,30.73
2022-12-19T11:49:25.389Z,26.17
2022-12-19T11:53:11.497Z,33.77
2022-12-19T11:56:25.406Z,24.35
2022-12-19T11:59:34.412Z,23.88
2022-12-19T12:02:35.390Z,21.65
2022-12-19T12:06:04.398Z,31.95
2022-12-19T12:14:15.474Z,29.17
2022-12-19T12:19:15.444Z,27.35
2022-12-19T12:28:01.715Z,24.15
2022-12-19T12:31:14.427Z,22.40
2022-12-19T12:31:26.378Z,20.65
2022-12-19T12:31:44.252Z,21.27
2022-12-19T12:31:49.682Z,23.67
2022-12-19T12:35:42.376Z,17.85
2022-12-19T12:38:13.785Z,18.42
2022-12-19T12:40:09.563Z,20.52
2022-12-19T12:43:39.412Z,18.30
2022-12-19T12:46:32.420Z,19.83
2022-12-19T12:49:19.388Z,18.40
2022-12-19T12:52:15.411Z,19.30
2022-12-19T12:55:11.398Z,19.33
2022-12-19T12:57:58.430Z,19.27
2022-12-19T13:00:35.834Z,20.95
2022-12-19T13:03:25.407Z,20.80
2022-12-19T13:06:20.445Z,20.98
2022-12-19T13:09:23.400Z,25.48
2022-12-19T13:12:56.426Z,30.77
2022-12-19T13:15:51.406Z,38.95
2022-12-19T13:18:50.435Z,32.28
2022-12-19T13:22:19.427Z,25.52
2022-12-19T13:25:14.419Z,27.52
2022-12-19T13:28:08.421Z,25.73
2022-12-19T13:31:18.276Z,32.83
2022-12-19T13:34:01.407Z,36.80
2022-12-19T13:39:56.268Z,47.42
2022-12-19T13:40:16.088Z,44.22
2022-12-19T13:43:36.420Z,33.75
2022-12-19T13:46:44.426Z,28.50
2022-12-19T13:49:36.412Z,35.67
2022-12-19T13:52:11.519Z,52.83
2022-12-19T13:55:03.451Z,34.08
2022-12-19T13:57:45.490Z,37.78
2022-12-19T14:00:53.729Z,30.02
2022-12-19T14:03:52.263Z,24.52
2022-12-19T14:06:39.424Z,23.35
2022-12-19T14:11:28.109Z,24.73
2022-12-19T14:13:58.818Z,24.02
2022-12-19T14:16:14.523Z,26.35
2022-12-19T14:18:47.495Z,23.70
2022-12-19T14:22:04.242Z,26.45
2022-12-19T14:24:37.459Z,24.27
2022-12-19T14:28:20.206Z,26.48
2022-12-19T14:30:43.459Z,25.77
2022-12-19T14:33:44.993Z,26.38
2022-12-19T14:36:42.434Z,23.95
2022-12-19T14:39:29.247Z,40.88
2022-12-19T14:43:57.734Z,36.20
2022-12-19T14:53:52.476Z,24.23
2022-12-19T14:54:05.095Z,29.33
2022-12-19T14:54:29.543Z,25.42
2022-12-19T14:56:04.471Z,29.15
2022-12-19T14:58:53.971Z,29.23
2022-12-19T15:01:39.439Z,27.73
2022-12-19T15:04:47.620Z,32.75
2022-12-19T15:07:33.443Z,30.10
2022-12-19T15:11:08.480Z,33.25
2022-12-19T15:14:55.304Z,29.95
2022-12-19T15:16:34.966Z,29.75
2022-12-19T15:19:19.437Z,28.33
2022-12-19T15:21:59.578Z,25.77
2022-12-19T15:24:39.453Z,31.52
2022-12-19T15:27:21.505Z,32.63
2022-12-19T15:30:01.458Z,28.63
2022-12-19T15:32:41.534Z,34.63
2022-12-19T15:35:23.463Z,71.88
2022-12-19T15:38:03.546Z,54.40
2022-12-19T15:40:46.480Z,41.20
2022-12-19T15:44:02.459Z,45.35
2022-12-19T15:46:41.345Z,31.45
2022-12-19T15:49:34.454Z,31.13
2022-12-19T15:52:32.456Z,36.17
2022-12-19T15:55:27.441Z,42.58
2022-12-19T15:58:16.439Z,41.13
2022-12-19T16:00:57.543Z,41.15
2022-12-19T16:03:45.632Z,40.40
2022-12-19T16:06:20.607Z,38.08
2022-12-19T16:09:07.435Z,35.63
2022-12-19T16:11:40.534Z,34.15
2022-12-19T16:14:28.465Z,35.80
2022-12-19T16:17:02.591Z,36.60
2022-12-19T16:19:49.486Z,33.83
2022-12-19T16:22:28.593Z,31.00
2022-12-19T16:25:18.405Z,34.50
2022-12-19T16:28:07.481Z,34.38
2022-12-19T16:31:02.481Z,36.50
2022-12-19T16:33:49.468Z,34.53
2022-12-19T16:36:22.577Z,34.08
2022-12-19T16:39:09.453Z,31.23
2022-12-19T16:41:50.494Z,36.15
2022-12-19T16:44:46.476Z,39.90
2022-12-19T16:47:40.476Z,54.03
2022-12-19T16:50:36.468Z,41.78
2022-12-19T16:53:09.787Z,36.63
2022-12-19T16:55:57.529Z,33.05
2022-12-19T16:58:43.314Z,38.80
2022-12-19T17:01:37.592Z,35.55
2022-12-19T17:04:40.484Z,36.20
2022-12-19T17:07:36.495Z,36.42
2022-12-19T17:10:32.485Z,37.72
2022-12-19T17:13:29.479Z,36.47
2022-12-19T17:16:23.556Z,40.45
2022-12-19T17:19:17.976Z,42.13
2022-12-19T17:22:04.495Z,34.15
2022-12-19T17:24:44.460Z,35.10
2022-12-19T17:27:38.493Z,28.98
2022-12-19T17:30:26.571Z,28.90
2022-12-19T17:33:03.292Z,28.25
2022-12-19T17:35:51.473Z,31.45
2022-12-19T17:38:24.662Z,32.92
2022-12-19T17:41:11.496Z,33.90
2022-12-19T17:43:51.470Z,34.45
2022-12-19T17:46:51.499Z,37.67
2022-12-19T17:49:39.474Z,35.42
2022-12-19T17:52:19.664Z,36.78
2022-12-19T17:55:12.083Z,39.33
2022-12-19T17:57:46.587Z,33.17
2022-12-19T18:00:35.503Z,32.70
2022-12-19T18:03:31.531Z,27.05
2022-12-19T18:06:25.474Z,29.55
2022-12-19T18:09:19.478Z,28.98
2022-12-19T18:12:06.492Z,28.80
2022-12-19T18:14:46.490Z,30.95
2022-12-19T18:17:40.517Z,29.63
2022-12-19T18:20:32.794Z,35.58
2022-12-19T18:23:07.561Z,38.15
2022-12-19T18:26:00.917Z,46.17
2022-12-19T18:28:34.579Z,46.38
2022-12-19T18:31:22.559Z,48.80
2022-12-19T18:34:02.043Z,45.50
2022-12-19T18:36:48.526Z,42.42
2022-12-19T18:39:31.505Z,40.63
2022-12-19T18:42:04.583Z,37.95
2022-12-19T18:44:58.512Z,37.92
2022-12-19T18:47:52.504Z,34.85
2022-12-19T18:50:39.507Z,28.80
2022-12-19T18:53:21.807Z,32.55
2022-12-19T18:56:09.511Z,32.95
2022-12-19T18:58:43.605Z,30.48
2022-12-19T19:01:30.595Z,31.40
2022-12-19T19:04:11.527Z,31.15
2022-12-19T19:07:00.488Z,29.50
2022-12-19T19:09:33.602Z,27.55
2022-12-19T19:12:20.511Z,25.38
2022-12-19T19:15:00.504Z,24.80
2022-12-19T19:17:55.504Z,24.20
2022-12-19T19:20:45.511Z,21.10
2022-12-19T19:23:27.556Z,23.55
2022-12-19T19:26:14.539Z,22.45
2022-12-19T19:28:54.538Z,20.52
2022-12-19T19:31:52.534Z,22.27
2022-12-19T19:34:43.514Z,25.20
2022-12-19T19:37:26.530Z,26.10
2022-12-19T19:40:14.510Z,23.60
2022-12-19T19:42:47.734Z,22.67
2022-12-19T19:45:43.644Z,27.42
2022-12-19T19:48:37.533Z,22.52
2022-12-19T19:51:24.529Z,23.73
2022-12-19T19:53:57.659Z,20.25
2022-12-19T19:56:44.533Z,22.95
2022-12-19T19:59:17.607Z,22.52
2022-12-19T20:02:04.615Z,22.65
2022-12-19T20:04:38.608Z,19.98
2022-12-19T20:07:25.515Z,22.52
2022-12-19T20:10:05.545Z,25.88
2022-12-19T20:12:53.529Z,25.95
2022-12-19T20:15:26.689Z,25.20
2022-12-19T20:18:13.536Z,32.90
2022-12-19T20:20:46.637Z,31.17
2022-12-19T20:23:33.522Z,25.77
2022-12-19T20:26:08.023Z,27.20
2022-12-19T20:28:56.534Z,24.98
2022-12-19T20:31:37.580Z,25.98
2022-12-19T20:34:26.543Z,22.90
2022-12-19T20:37:06.523Z,31.75
2022-12-19T20:39:53.514Z,34.75
2022-12-19T20:42:33.534Z,26.95
2022-12-19T20:45:28.539Z,25.52
2022-12-19T20:48:15.549Z,22.85
2022-12-19T20:50:48.608Z,22.45
2022-12-19T20:53:35.550Z,20.73
2022-12-19T20:56:10.647Z,23.35
2022-12-19T20:58:57.538Z,23.27
2022-12-19T21:01:31.669Z,24.42
2022-12-19T21:04:18.668Z,24.85
2022-12-19T21:06:51.633Z,26.42
2022-12-19T21:09:38.524Z,25.17
2022-12-19T21:12:11.655Z,24.88
2022-12-19T21:14:58.534Z,24.65
2022-12-19T21:17:31.676Z,24.60
2022-12-19T21:20:18.544Z,24.60
2022-12-19T21:22:51.635Z,30.15
2022-12-19T21:25:38.534Z,25.00
2022-12-19T21:28:11.620Z,20.67
2022-12-19T21:31:11.595Z,22.15
2022-12-19T21:33:51.571Z,20.52
2022-12-19T21:36:46.551Z,19.95
2022-12-19T21:39:33.568Z,20.95
2022-12-19T21:42:06.717Z,20.92
2022-12-19T21:45:00.568Z,22.92
2022-12-19T21:47:54.567Z,21.27
2022-12-19T21:50:41.562Z,22.35
2022-12-19T21:53:14.641Z,21.48
2022-12-19T21:56:09.545Z,21.30
2022-12-19T21:58:42.632Z,20.17
2022-12-19T22:01:30.642Z,21.67
2022-12-19T22:04:07.727Z,19.02
2022-12-19T22:06:55.582Z,20.33
2022-12-19T22:09:36.552Z,19.88
2022-12-19T22:12:23.567Z,19.45
2022-12-19T22:15:05.561Z,19.40
2022-12-19T22:17:59.585Z,18.02
2022-12-19T22:20:50.602Z,17.85
2022-12-19T22:23:23.627Z,18.52
2022-12-19T22:26:20.576Z,23.15
2022-12-19T22:28:56.664Z,25.13
2022-12-19T22:31:45.646Z,23.90
2022-12-19T22:34:21.625Z,20.02
2022-12-19T22:37:08.564Z,20.30
2022-12-19T22:39:48.633Z,19.05
2022-12-19T22:42:42.582Z,20.50
2022-12-19T22:45:36.603Z,20.30
2022-12-19T22:48:30.580Z,19.10
2022-12-19T22:51:17.685Z,16.35
2022-12-19T22:53:50.652Z,17.20
2022-12-19T22:56:39.586Z,17.90
2022-12-19T22:59:21.589Z,16.88
2022-12-19T23:02:15.782Z,18.33
2022-12-19T23:05:02.623Z,17.83
2022-12-19T23:07:35.705Z,19.45
2022-12-19T23:10:22.665Z,17.48
2022-12-19T23:12:55.709Z,18.60
2022-12-19T23:15:42.599Z,18.20
2022-12-19T23:18:16.056Z,16.95
2022-12-19T23:21:16.594Z,19.05
2022-12-19T23:23:58.587Z,18.67
2022-12-19T23:26:45.583Z,19.17
2022-12-19T23:29:28.584Z,17.33
2022-12-19T23:32:22.637Z,17.48
2022-12-19T23:35:16.580Z,18.15
2022-12-19T23:38:03.587Z,17.63
2022-12-19T23:40:43.569Z,18.45
2022-12-19T23:43:30.613Z,18.10
2022-12-19T23:46:10.671Z,17.13
2022-12-19T23:48:59.632Z,18.42
2022-12-19T23:51:40.603Z,19.08
2022-12-19T23:54:27.585Z,17.15
2022-12-19T23:57:07.600Z,17.38
